createdAt,value
2022-09-03T00:00:40.077Z,3.87
2022-09-03T00:03:17.856Z,4.13
2022-09-03T00:06:10.616Z,3.83
2022-09-03T00:08:42.351Z,3.67
2022-09-03T00:11:26.251Z,4.50
2022-09-03T00:14:19.480Z,3.87
2022-09-03T00:16:57.797Z,3.70
2022-09-03T00:19:29.155Z,3.70
2022-09-03T00:22:00.396Z,3.73
2022-09-03T00:24:31.069Z,4.50
2022-09-03T00:27:03.297Z,4.00
2022-09-03T00:29:57.832Z,3.97
2022-09-03T00:33:10.127Z,3.90
2022-09-03T00:35:40.586Z,3.93
2022-09-03T00:38:08.234Z,3.57
2022-09-03T00:41:00.633Z,4.13
2022-09-03T00:43:48.202Z,3.90
2022-09-03T00:46:36.337Z,3.67
2022-09-03T00:49:28.200Z,3.60
2022-09-03T00:52:11.524Z,4.37
2022-09-03T00:54:46.918Z,4.80
2022-09-03T00:57:32.252Z,4.13
2022-09-03T01:00:10.412Z,4.40
2022-09-03T01:03:06.952Z,4.53
2022-09-03T01:05:56.496Z,3.53
2022-09-03T01:08:44.048Z,4.60
2022-09-03T01:11:20.016Z,4.57
2022-09-03T01:13:52.617Z,4.00
2022-09-03T01:16:37.743Z,4.87
2022-09-03T01:19:12.283Z,4.53
2022-09-03T01:21:55.356Z,4.23
2022-09-03T01:24:32.871Z,4.07
2022-09-03T01:27:15.321Z,5.00
2022-09-03T01:29:55.647Z,4.30
2022-09-03T01:32:41.082Z,4.30
2022-09-03T01:35:42.611Z,4.70
2022-09-03T01:38:27.533Z,4.67
2022-09-03T01:41:28.674Z,4.53
2022-09-03T01:44:22.333Z,4.70
2022-09-03T01:46:56.540Z,4.57
2022-09-03T01:49:41.368Z,4.10
2022-09-03T01:52:29.617Z,4.10
2022-09-03T01:55:33.397Z,4.20
2022-09-03T01:58:12.945Z,4.10
2022-09-03T02:00:43.976Z,4.10
2022-09-03T02:03:12.689Z,4.13
2022-09-03T02:05:39.564Z,3.80
2022-09-03T02:08:09.007Z,4.27
2022-09-03T02:10:43.830Z,4.07
2022-09-03T02:13:38.716Z,4.47
2022-09-03T02:16:15.908Z,4.07
2022-09-03T02:18:46.964Z,4.27
2022-09-03T02:21:18.075Z,3.90
2022-09-03T02:23:44.849Z,4.00
2022-09-03T02:26:14.687Z,4.03
2022-09-03T02:28:41.790Z,4.80
2022-09-03T02:31:08.568Z,4.07
2022-09-03T02:33:40.918Z,3.57
2022-09-03T02:36:10.431Z,3.90
2022-09-03T02:38:37.434Z,3.33
2022-09-03T02:41:04.175Z,3.97
2022-09-03T02:43:42.131Z,3.20
2022-09-03T02:46:18.085Z,3.70
2022-09-03T02:48:44.741Z,3.77
2022-09-03T02:51:14.339Z,3.97
2022-09-03T02:53:42.533Z,4.13
2022-09-03T02:56:09.250Z,4.13
2022-09-03T02:58:35.928Z,4.40
2022-09-03T03:01:03.956Z,4.07
2022-09-03T03:03:30.757Z,4.30
2022-09-03T03:06:01.608Z,3.80
2022-09-03T03:08:29.141Z,3.77
2022-09-03T03:10:58.864Z,4.27
2022-09-03T03:13:27.292Z,4.33
2022-09-03T03:15:59.021Z,4.07
2022-09-03T03:18:25.901Z,4.10
2022-09-03T03:20:52.719Z,4.93
2022-09-03T03:23:19.571Z,4.60
2022-09-03T03:25:46.847Z,4.67
2022-09-03T03:28:16.426Z,4.57
2022-09-03T03:30:43.208Z,5.00
2022-09-03T03:33:10.432Z,4.23
2022-09-03T03:35:37.486Z,4.30
2022-09-03T03:38:05.137Z,4.87
2022-09-03T03:40:32.035Z,5.07
2022-09-03T03:42:59.027Z,5.13
2022-09-03T03:45:25.837Z,5.13
2022-09-03T03:47:52.936Z,4.90
2022-09-03T03:50:19.739Z,5.43
2022-09-03T03:52:46.391Z,5.20
2022-09-03T03:55:13.113Z,5.33
2022-09-03T03:57:42.762Z,6.03
2022-09-03T04:00:09.980Z,5.33
2022-09-03T04:02:39.192Z,4.90
2022-09-03T04:05:06.437Z,5.47
2022-09-03T04:07:34.497Z,5.30
2022-09-03T04:10:01.434Z,4.50
2022-09-03T04:12:28.126Z,4.50
2022-09-03T04:14:54.782Z,4.93
2022-09-03T04:17:25.148Z,4.83
2022-09-03T04:19:52.158Z,4.63
2022-09-03T04:22:19.723Z,4.70
2022-09-03T04:24:46.358Z,5.23
2022-09-03T04:27:13.100Z,4.70
2022-09-03T04:29:39.867Z,4.23
2022-09-03T04:32:24.993Z,4.57
2022-09-03T04:34:51.622Z,4.43
2022-09-03T04:37:19.945Z,4.93
2022-09-03T04:39:46.846Z,4.80
2022-09-03T04:42:13.537Z,4.33
2022-09-03T04:44:41.210Z,4.13
2022-09-03T04:47:08.057Z,4.23
2022-09-03T04:49:34.876Z,4.97
2022-09-03T04:52:02.682Z,4.00
2022-09-03T04:54:29.641Z,4.87
2022-09-03T04:56:56.779Z,4.27
2022-09-03T04:59:23.413Z,4.80
2022-09-03T05:01:50.168Z,5.03
2022-09-03T05:04:16.824Z,4.77
2022-09-03T05:06:43.545Z,4.87
2022-09-03T05:09:10.190Z,4.23
2022-09-03T05:11:37.103Z,4.63
2022-09-03T05:14:05.961Z,4.57
2022-09-03T05:16:33.137Z,4.20
2022-09-03T05:19:01.310Z,4.90
2022-09-03T05:21:29.382Z,3.93
2022-09-03T05:23:56.539Z,3.87
2022-09-03T05:26:25.751Z,3.70
2022-09-03T05:29:04.370Z,3.87
2022-09-03T05:31:32.287Z,4.03
2022-09-03T05:34:01.567Z,3.73
2022-09-03T05:36:31.978Z,3.53
2022-09-03T05:39:01.808Z,4.27
2022-09-03T05:41:29.804Z,3.70
2022-09-03T05:43:59.337Z,3.47
2022-09-03T05:46:34.347Z,3.13
2022-09-03T05:49:06.062Z,3.50
2022-09-03T05:51:34.114Z,4.03
2022-09-03T05:54:01.935Z,4.20
2022-09-03T05:56:30.644Z,3.83
2022-09-03T05:59:05.796Z,3.63
2022-09-03T06:01:34.906Z,3.60
2022-09-03T06:04:04.335Z,3.90
2022-09-03T06:06:33.581Z,3.80
2022-09-03T06:09:06.796Z,2.90
2022-09-03T06:11:35.506Z,3.37
2022-09-03T06:14:08.562Z,3.30
2022-09-03T06:16:41.186Z,3.33
2022-09-03T06:19:13.274Z,3.07
2022-09-03T06:21:43.002Z,3.63
2022-09-03T06:24:17.309Z,3.40
2022-09-03T06:26:45.078Z,3.47
2022-09-03T06:29:12.530Z,3.40
2022-09-03T06:31:39.916Z,3.27
2022-09-03T06:34:06.724Z,3.40
2022-09-03T06:36:33.721Z,3.87
2022-09-03T06:39:00.516Z,3.00
2022-09-03T06:41:31.825Z,2.87
2022-09-03T06:44:03.250Z,3.57
2022-09-03T06:46:35.281Z,3.70
2022-09-03T06:49:02.655Z,4.10
2022-09-03T06:51:31.241Z,3.60
2022-09-03T06:54:06.425Z,3.07
2022-09-03T06:56:39.576Z,3.60
2022-09-03T06:59:16.080Z,3.53
2022-09-03T07:01:52.956Z,3.57
2022-09-03T07:04:20.329Z,3.90
2022-09-03T07:06:47.714Z,3.93
2022-09-03T07:09:15.873Z,4.37
2022-09-03T07:11:47.990Z,3.50
2022-09-03T07:14:19.817Z,3.70
2022-09-03T07:16:47.985Z,4.40
2022-09-03T07:19:15.662Z,3.87
2022-09-03T07:21:48.406Z,3.70
2022-09-03T07:24:16.823Z,4.33
2022-09-03T07:26:48.821Z,4.87
2022-09-03T07:29:16.574Z,3.83
2022-09-03T07:31:44.265Z,3.70
2022-09-03T07:34:12.947Z,3.37
2022-09-03T07:36:48.657Z,4.40
2022-09-03T07:39:18.027Z,3.43
2022-09-03T07:41:46.231Z,4.20
2022-09-03T07:44:22.888Z,4.37
2022-09-03T07:46:51.435Z,4.07
2022-09-03T07:49:18.757Z,4.10
2022-09-03T07:51:46.645Z,4.13
2022-09-03T07:54:13.388Z,4.53
2022-09-03T07:56:41.188Z,4.20
2022-09-03T07:59:08.949Z,3.67
2022-09-03T08:01:36.933Z,3.90
2022-09-03T08:04:07.047Z,3.87
2022-09-03T08:06:40.315Z,3.33
2022-09-03T08:09:11.442Z,4.10
2022-09-03T08:11:40.316Z,4.60
2022-09-03T08:14:09.532Z,4.47
2022-09-03T08:16:39.696Z,4.10
2022-09-03T08:19:07.699Z,4.13
2022-09-03T08:21:35.189Z,3.93
2022-09-03T08:24:05.889Z,3.67
2022-09-03T08:26:37.835Z,3.90
2022-09-03T08:29:05.776Z,4.40
2022-09-03T08:31:34.470Z,4.10
2022-09-03T08:34:04.939Z,4.40
2022-09-03T08:36:34.041Z,4.57
2022-09-03T08:39:08.216Z,4.43
2022-09-03T08:41:53.414Z,4.80
2022-09-03T08:44:35.250Z,3.93
2022-09-03T08:47:20.830Z,4.20
2022-09-03T08:50:22.890Z,4.07
2022-09-03T08:53:02.067Z,4.13
2022-09-03T08:55:31.172Z,3.83
2022-09-03T08:58:06.406Z,4.57
2022-09-03T09:01:01.625Z,3.87
2022-09-03T09:04:09.767Z,3.97
2022-09-03T09:06:52.590Z,4.30
2022-09-03T09:09:19.190Z,4.20
2022-09-03T09:11:46.182Z,4.10
2022-09-03T09:14:39.400Z,3.93
2022-09-03T09:17:13.312Z,4.43
2022-09-03T09:19:47.367Z,3.73
2022-09-03T09:22:30.546Z,3.77
2022-09-03T09:25:02.253Z,3.53
2022-09-03T09:27:29.873Z,3.73
2022-09-03T09:30:01.919Z,3.67
2022-09-03T09:32:29.148Z,3.37
2022-09-03T09:34:55.813Z,3.70
2022-09-03T09:37:22.525Z,3.40
2022-09-03T09:39:57.863Z,3.20
2022-09-03T09:42:25.767Z,3.90
2022-09-03T09:44:52.823Z,3.67
2022-09-03T09:47:38.659Z,3.30
2022-09-03T09:50:25.097Z,4.07
2022-09-03T09:53:14.625Z,4.13
2022-09-03T09:55:52.801Z,3.20
2022-09-03T09:58:21.314Z,3.70
2022-09-03T10:01:00.571Z,4.10
2022-09-03T10:03:29.958Z,3.67
2022-09-03T10:06:28.941Z,3.83
2022-09-03T10:09:10.907Z,3.70
2022-09-03T10:11:41.173Z,3.40
2022-09-03T10:14:25.316Z,4.23
2022-09-03T10:17:02.540Z,4.17
2022-09-03T10:19:40.553Z,4.60
2022-09-03T10:22:17.944Z,3.47
2022-09-03T10:24:58.061Z,4.13
2022-09-03T10:27:25.966Z,3.90
2022-09-03T10:29:53.463Z,3.87
2022-09-03T10:33:01.150Z,3.97
2022-09-03T10:35:45.842Z,3.97
2022-09-03T10:38:18.774Z,4.07
2022-09-03T10:41:14.824Z,4.17
2022-09-03T10:43:58.295Z,4.47
2022-09-03T10:46:35.907Z,4.00
2022-09-03T10:49:40.666Z,4.43
2022-09-03T10:52:20.788Z,3.57
2022-09-03T10:55:24.530Z,4.07
2022-09-03T10:57:56.791Z,3.73
2022-09-03T11:00:24.342Z,3.50
2022-09-03T11:03:03.039Z,3.27
2022-09-03T11:05:42.706Z,3.90
2022-09-03T11:08:22.051Z,3.37
2022-09-03T11:10:54.922Z,3.47
2022-09-03T11:13:35.480Z,3.80
2022-09-03T11:16:06.735Z,4.03
2022-09-03T11:18:41.217Z,3.50
2022-09-03T11:21:13.179Z,3.50
2022-09-03T11:23:47.662Z,3.90
2022-09-03T11:26:18.681Z,3.80
2022-09-03T11:28:59.775Z,4.03
2022-09-03T11:31:59.240Z,3.77
2022-09-03T11:34:33.969Z,3.53
2022-09-03T11:37:15.723Z,3.20
2022-09-03T11:39:42.495Z,3.20
2022-09-03T11:42:28.362Z,3.30
2022-09-03T11:45:01.028Z,3.30
2022-09-03T11:47:43.804Z,2.90
2022-09-03T11:50:26.159Z,3.43
2022-09-03T11:53:06.777Z,3.00
2022-09-03T11:55:46.438Z,3.30
2022-09-03T11:58:25.508Z,3.17
2022-09-03T12:00:54.213Z,3.77
2022-09-03T12:03:28.688Z,2.40
2022-09-03T12:06:13.843Z,2.93
2022-09-03T12:09:24.551Z,3.30
2022-09-03T12:12:07.055Z,2.63
2022-09-03T12:14:39.519Z,2.97
2022-09-03T12:17:21.271Z,3.97
2022-09-03T12:19:55.908Z,3.03
2022-09-03T12:22:28.806Z,3.20
2022-09-03T12:24:56.301Z,3.03
2022-09-03T12:27:26.230Z,3.43
2022-09-03T12:30:00.561Z,4.50
2022-09-03T12:32:39.379Z,3.80
2022-09-03T12:38:09.900Z,3.90
2022-09-03T12:43:38.205Z,3.30
2022-09-03T12:46:13.729Z,3.70
2022-09-03T12:49:30.040Z,3.67
2022-09-03T12:51:53.363Z,7.50
2022-09-03T12:54:23.138Z,13.57
2022-09-03T12:56:56.651Z,3.80
2022-09-03T12:59:25.062Z,3.40
2022-09-03T13:01:54.984Z,4.17
2022-09-03T13:04:28.150Z,3.50
2022-09-03T13:07:06.004Z,3.00
2022-09-03T13:09:37.909Z,3.27
2022-09-03T13:12:06.007Z,2.70
2022-09-03T13:14:44.200Z,3.50
2022-09-03T13:17:38.738Z,3.03
2022-09-03T13:20:17.709Z,2.70
2022-09-03T13:23:05.234Z,2.70
2022-09-03T13:25:41.950Z,3.10
2022-09-03T13:28:27.505Z,2.93
2022-09-03T13:31:02.309Z,2.60
2022-09-03T13:33:42.182Z,3.10
2022-09-03T13:36:28.622Z,3.00
2022-09-03T13:39:06.113Z,3.30
2022-09-03T13:42:00.201Z,3.10
2022-09-03T13:44:41.132Z,2.97
2022-09-03T13:47:28.742Z,3.03
2022-09-03T13:50:22.730Z,3.20
2022-09-03T13:53:01.219Z,2.90
2022-09-03T13:55:43.162Z,3.30
2022-09-03T13:58:23.068Z,3.10
2022-09-03T14:01:06.194Z,3.33
2022-09-03T14:03:56.382Z,2.87
2022-09-03T14:06:36.842Z,3.00
2022-09-03T14:09:18.566Z,3.03
2022-09-03T14:11:51.228Z,2.93
2022-09-03T14:14:31.572Z,3.10
2022-09-03T14:17:10.146Z,2.73
2022-09-03T14:19:48.838Z,2.80
2022-09-03T14:22:25.690Z,3.30
2022-09-03T14:25:26.437Z,2.70
2022-09-03T14:27:55.371Z,2.60
2022-09-03T14:30:55.586Z,3.20
2022-09-03T14:33:25.643Z,3.50
2022-09-03T14:35:58.985Z,2.67
2022-09-03T14:38:56.025Z,3.00
2022-09-03T14:41:28.247Z,3.20
2022-09-03T14:43:57.895Z,2.90
2022-09-03T14:46:45.939Z,2.63
2022-09-03T14:49:31.163Z,2.90
2022-09-03T14:52:17.244Z,2.30
2022-09-03T14:55:12.810Z,2.17
2022-09-03T14:58:20.487Z,2.50
2022-09-03T15:01:11.427Z,2.67
2022-09-03T15:03:44.084Z,3.30
2022-09-03T15:06:37.917Z,2.40
2022-09-03T15:09:28.468Z,3.07
2022-09-03T15:12:03.614Z,2.27
2022-09-03T15:14:56.036Z,2.33
2022-09-03T15:17:28.402Z,2.90
2022-09-03T15:20:32.502Z,3.07
2022-09-03T15:23:18.485Z,3.23
2022-09-03T15:25:50.713Z,2.80
2022-09-03T15:28:34.577Z,2.83
2022-09-03T15:31:20.199Z,3.03
2022-09-03T15:33:56.852Z,3.00
2022-09-03T15:36:35.002Z,2.90
2022-09-03T15:39:06.984Z,3.00
2022-09-03T15:42:02.805Z,2.60
2022-09-03T15:44:37.967Z,3.20
2022-09-03T15:47:14.428Z,3.17
2022-09-03T15:50:07.542Z,3.60
2022-09-03T15:52:54.197Z,3.27
2022-09-03T15:55:42.432Z,3.37
2022-09-03T15:58:35.377Z,3.33
2022-09-03T16:01:27.076Z,3.70
2022-09-03T16:03:56.895Z,2.73
2022-09-03T16:06:39.220Z,3.47
2022-09-03T16:09:10.770Z,3.00
2022-09-03T16:11:51.745Z,3.33
2022-09-03T16:14:25.580Z,3.87
2022-09-03T16:17:02.080Z,3.37
2022-09-03T16:19:38.082Z,3.47
2022-09-03T16:22:14.045Z,2.80
2022-09-03T16:25:07.298Z,3.93
2022-09-03T16:27:51.496Z,3.40
2022-09-03T16:30:37.181Z,4.00
2022-09-03T16:33:27.917Z,4.03
2022-09-03T16:36:12.469Z,3.67
2022-09-03T16:39:10.750Z,4.53
2022-09-03T16:41:46.439Z,4.00
2022-09-03T16:44:25.185Z,4.23
2022-09-03T16:47:16.640Z,4.83
2022-09-03T16:50:11.121Z,4.53
2022-09-03T16:53:11.186Z,3.93
2022-09-03T16:56:04.452Z,4.00
2022-09-03T16:58:51.316Z,4.17
2022-09-03T17:01:36.297Z,4.73
2022-09-03T17:04:21.516Z,4.03
2022-09-03T17:07:23.815Z,4.33
2022-09-03T17:09:59.575Z,4.27
2022-09-03T17:13:03.997Z,4.70
2022-09-03T17:15:44.864Z,3.80
2022-09-03T17:18:40.621Z,4.20
2022-09-03T17:21:10.283Z,5.17
2022-09-03T17:24:06.313Z,4.37
2022-09-03T17:26:45.764Z,4.97
2022-09-03T17:29:30.921Z,4.80
2022-09-03T17:32:07.581Z,5.13
2022-09-03T17:35:06.413Z,4.30
2022-09-03T17:37:52.838Z,4.73
2022-09-03T17:40:28.099Z,4.07
2022-09-03T17:43:14.610Z,4.60
2022-09-03T17:45:51.665Z,4.70
2022-09-03T17:48:24.266Z,4.43
2022-09-03T17:50:53.537Z,4.50
2022-09-03T17:53:32.383Z,4.03
2022-09-03T17:56:06.481Z,4.43
2022-09-03T17:58:43.862Z,4.20
2022-09-03T18:01:10.447Z,4.67
2022-09-03T18:03:46.078Z,4.17
2022-09-03T18:06:40.705Z,4.27
2022-09-03T18:09:24.016Z,4.00
2022-09-03T18:11:57.102Z,4.40
2022-09-03T18:14:34.235Z,4.97
2022-09-03T18:17:05.612Z,4.50
2022-09-03T18:20:09.605Z,5.07
2022-09-03T18:23:20.234Z,4.90
2022-09-03T18:26:20.688Z,4.53
2022-09-03T18:29:10.669Z,4.53
2022-09-03T18:31:55.934Z,4.40
2022-09-03T18:34:49.673Z,4.70
2022-09-03T18:37:39.609Z,4.83
2022-09-03T18:40:27.439Z,5.53
2022-09-03T18:43:33.640Z,5.37
2022-09-03T18:49:54.426Z,4.40
2022-09-03T18:53:01.072Z,4.87
2022-09-03T18:56:08.201Z,5.63
2022-09-03T18:59:16.670Z,5.33
2022-09-03T19:02:02.826Z,5.27
2022-09-03T19:05:33.174Z,4.47
2022-09-03T19:08:41.455Z,5.03
2022-09-03T19:11:43.149Z,6.13
2022-09-03T19:14:53.051Z,5.00
2022-09-03T19:18:00.798Z,5.37
2022-09-03T19:20:51.107Z,5.33
2022-09-03T19:23:36.278Z,4.90
2022-09-03T19:26:37.614Z,4.93
2022-09-03T19:29:30.297Z,5.17
2022-09-03T19:32:26.811Z,5.37
2022-09-03T19:35:36.687Z,5.20
2022-09-03T19:38:28.096Z,5.00
2022-09-03T19:41:21.421Z,5.40
2022-09-03T19:44:33.963Z,4.77
2022-09-03T19:47:22.635Z,4.40
2022-09-03T19:50:22.967Z,5.00
2022-09-03T19:53:13.170Z,5.13
2022-09-03T19:56:07.571Z,5.03
2022-09-03T19:58:57.316Z,5.13
2022-09-03T20:01:48.251Z,4.53
2022-09-03T20:04:35.003Z,5.63
2022-09-03T20:07:23.639Z,5.30
2022-09-03T20:10:10.639Z,4.80
2022-09-03T20:12:43.414Z,5.13
2022-09-03T20:15:10.554Z,5.70
2022-09-03T20:17:52.697Z,5.00
2022-09-03T20:20:25.260Z,5.37
2022-09-03T20:22:59.652Z,5.10
2022-09-03T20:26:00.146Z,5.07
2022-09-03T20:28:45.841Z,4.97
2022-09-03T20:31:44.024Z,5.07
2022-09-03T20:34:16.529Z,4.80
2022-09-03T20:37:04.668Z,4.90
2022-09-03T20:40:12.355Z,4.57
2022-09-03T20:42:55.273Z,5.50
2022-09-03T20:45:46.431Z,5.27
2022-09-03T20:48:36.801Z,5.50
2022-09-03T20:51:12.005Z,4.77
2022-09-03T20:54:15.372Z,5.30
2022-09-03T20:57:02.907Z,4.93
2022-09-03T21:00:03.492Z,4.93
2022-09-03T21:02:58.297Z,5.73
2022-09-03T21:05:30.445Z,5.00
2022-09-03T21:08:21.290Z,5.60
2022-09-03T21:11:09.774Z,5.00
2022-09-03T21:13:52.044Z,4.83
2022-09-03T21:16:24.557Z,5.30
2022-09-03T21:19:06.903Z,4.60
2022-09-03T21:21:59.605Z,4.43
2022-09-03T21:24:35.018Z,4.73
2022-09-03T21:27:15.094Z,4.87
2022-09-03T21:29:47.836Z,4.87
2022-09-03T21:32:33.649Z,4.60
2022-09-03T21:35:15.191Z,4.77
2022-09-03T21:37:58.150Z,4.87
2022-09-03T21:40:31.401Z,5.13
2022-09-03T21:43:08.478Z,5.33
2022-09-03T21:45:52.051Z,5.10
2022-09-03T21:48:25.522Z,4.43
2022-09-03T21:50:58.824Z,5.20
2022-09-03T21:53:42.471Z,5.77
2022-09-03T21:56:34.462Z,5.30
2022-09-03T21:59:26.350Z,4.77
2022-09-03T22:02:03.434Z,5.43
2022-09-03T22:04:30.838Z,4.57
2022-09-03T22:07:00.322Z,5.00
2022-09-03T22:09:40.966Z,5.40
2022-09-03T22:12:20.329Z,5.20
2022-09-03T22:14:51.811Z,5.03
2022-09-03T22:17:47.051Z,4.97
2022-09-03T22:20:15.597Z,4.83
2022-09-03T22:22:56.697Z,5.03
2022-09-03T22:25:37.139Z,4.73
2022-09-03T22:28:06.593Z,5.20
2022-09-03T22:31:24.736Z,5.57
2022-09-03T22:33:56.727Z,5.60
2022-09-03T22:36:40.238Z,4.70
2022-09-03T22:39:18.079Z,5.00
2022-09-03T22:42:18.019Z,5.27
2022-09-03T22:44:59.532Z,4.93
2022-09-03T22:47:50.866Z,5.47
2022-09-03T22:50:36.189Z,5.20
2022-09-03T22:53:11.915Z,5.90
2022-09-03T22:55:45.798Z,4.93
2022-09-03T22:58:19.706Z,4.97
2022-09-03T23:00:57.600Z,4.80
2022-09-03T23:03:39.170Z,4.20
2022-09-03T23:06:16.621Z,4.33
2022-09-03T23:08:56.638Z,3.93
2022-09-03T23:11:31.550Z,4.50
2022-09-03T23:14:08.266Z,3.97
2022-09-03T23:16:46.611Z,4.67
2022-09-03T23:22:07.205Z,4.20
2022-09-03T23:24:36.923Z,4.93
2022-09-03T23:27:10.075Z,4.47
2022-09-03T23:29:51.232Z,4.30
2022-09-03T23:32:18.227Z,4.40
2022-09-03T23:34:44.949Z,4.23
2022-09-03T23:37:33.477Z,4.23
2022-09-03T23:40:28.695Z,4.33
2022-09-03T23:43:17.115Z,4.47
2022-09-03T23:46:15.458Z,4.37
2022-09-03T23:48:54.343Z,4.67
2022-09-03T23:51:29.855Z,4.30
2022-09-03T23:54:16.724Z,4.43
2022-09-03T23:57:08.370Z,4.67
